createdAt,value
2022-10-20T00:00:25.252Z,1021.12
2022-10-20T00:01:25.531Z,1021.11
2022-10-20T00:02:25.880Z,1021.12
2022-10-20T00:03:26.099Z,1021.11
2022-10-20T00:04:26.400Z,1021.09
2022-10-20T00:05:26.725Z,1021.08
2022-10-20T00:06:27.026Z,1021.05
2022-10-20T00:07:34.345Z,1021.08
2022-10-20T00:08:27.592Z,1021.10
2022-10-20T00:09:27.871Z,1021.12
2022-10-20T00:10:28.155Z,1021.06
2022-10-20T00:11:28.515Z,1021.09
2022-10-20T00:12:28.773Z,1021.11
2022-10-20T00:13:29.096Z,1021.10
2022-10-20T00:14:29.384Z,1021.10
2022-10-20T00:15:29.674Z,1021.04
2022-10-20T00:16:29.951Z,1021.06
2022-10-20T00:17:30.242Z,1021.02
2022-10-20T00:18:30.546Z,1021.01
2022-10-20T00:19:30.832Z,1021.01
2022-10-20T00:20:31.118Z,1021.01
2022-10-20T00:21:31.399Z,1021.03
2022-10-20T00:22:31.712Z,1021.01
2022-10-20T00:23:32.016Z,1020.99
2022-10-20T00:24:32.299Z,1021.04
2022-10-20T00:25:32.587Z,1021.00
2022-10-20T00:26:32.870Z,1020.95
2022-10-20T00:27:33.148Z,1020.97
2022-10-20T00:28:33.440Z,1020.97
2022-10-20T00:29:33.716Z,1021.01
2022-10-20T00:30:34.006Z,1021.01
2022-10-20T00:31:34.297Z,1021.01
2022-10-20T00:32:34.924Z,1020.98
2022-10-20T00:33:34.861Z,1020.98
2022-10-20T00:34:35.135Z,1020.98
2022-10-20T00:35:35.442Z,1020.98
2022-10-20T00:36:35.708Z,1020.96
2022-10-20T00:37:35.996Z,1020.96
2022-10-20T00:38:36.320Z,1020.91
2022-10-20T00:39:36.704Z,1020.89
2022-10-20T00:40:36.858Z,1020.86
2022-10-20T00:41:37.180Z,1020.84
2022-10-20T00:42:37.899Z,1020.87
2022-10-20T00:43:37.789Z,1020.83
2022-10-20T00:44:38.085Z,1020.80
2022-10-20T00:45:38.372Z,1020.76
2022-10-20T00:46:38.669Z,1020.72
2022-10-20T00:47:39.026Z,1020.71
2022-10-20T00:48:39.212Z,1020.73
2022-10-20T00:49:39.489Z,1020.70
2022-10-20T00:50:39.764Z,1020.66
2022-10-20T00:51:40.043Z,1020.65
2022-10-20T00:52:40.326Z,1020.66
2022-10-20T00:53:40.629Z,1020.64
2022-10-20T00:54:40.932Z,1020.68
2022-10-20T00:55:41.215Z,1020.65
2022-10-20T00:56:41.490Z,1020.62
2022-10-20T00:57:41.772Z,1020.59
2022-10-20T00:58:42.450Z,1020.57
2022-10-20T00:59:42.289Z,1020.55
2022-10-20T01:00:42.571Z,1020.54
2022-10-20T01:01:42.985Z,1020.50
2022-10-20T01:02:43.198Z,1020.51
2022-10-20T01:03:43.499Z,1020.53
2022-10-20T01:04:43.778Z,1020.52
2022-10-20T01:05:44.140Z,1020.53
2022-10-20T01:06:44.311Z,1020.54
2022-10-20T01:07:44.593Z,1020.53
2022-10-20T01:08:44.967Z,1020.53
2022-10-20T01:09:45.139Z,1020.54
2022-10-20T01:10:45.419Z,1020.54
2022-10-20T01:11:45.712Z,1020.53
2022-10-20T01:12:45.987Z,1020.50
2022-10-20T01:13:46.297Z,1020.55
2022-10-20T01:14:46.576Z,1020.51
2022-10-20T01:15:46.860Z,1020.52
2022-10-20T01:16:47.138Z,1020.54
2022-10-20T01:17:47.428Z,1020.53
2022-10-20T01:18:47.752Z,1020.51
2022-10-20T01:19:48.045Z,1020.52
2022-10-20T01:20:48.326Z,1020.49
2022-10-20T01:21:48.643Z,1020.49
2022-10-20T01:22:49.113Z,1020.50
2022-10-20T01:23:49.288Z,1020.44
2022-10-20T01:24:49.582Z,1020.44
2022-10-20T01:25:49.887Z,1020.38
2022-10-20T01:26:50.203Z,1020.40
2022-10-20T01:27:50.482Z,1020.40
2022-10-20T01:28:50.806Z,1020.40
2022-10-20T01:29:51.093Z,1020.40
2022-10-20T01:30:51.391Z,1020.37
2022-10-20T01:31:51.682Z,1020.39
2022-10-20T01:32:51.955Z,1020.35
2022-10-20T01:33:52.250Z,1020.36
2022-10-20T01:34:53.191Z,1020.32
2022-10-20T01:35:52.800Z,1020.30
2022-10-20T01:36:53.079Z,1020.27
2022-10-20T01:37:53.565Z,1020.31
2022-10-20T01:38:53.658Z,1020.30
2022-10-20T01:39:53.938Z,1020.24
2022-10-20T01:40:54.220Z,1020.25
2022-10-20T01:41:54.499Z,1020.27
2022-10-20T01:42:54.787Z,1020.26
2022-10-20T01:43:55.083Z,1020.26
2022-10-20T01:44:55.375Z,1020.24
2022-10-20T01:45:55.850Z,1020.23
2022-10-20T01:46:55.916Z,1020.20
2022-10-20T01:47:56.228Z,1020.19
2022-10-20T01:48:56.517Z,1020.20
2022-10-20T01:49:56.804Z,1020.16
2022-10-20T01:50:57.090Z,1020.12
2022-10-20T01:51:57.399Z,1020.14
2022-10-20T01:52:57.676Z,1020.14
2022-10-20T01:53:57.975Z,1020.10
2022-10-20T01:54:58.254Z,1020.08
2022-10-20T01:55:58.541Z,1020.10
2022-10-20T01:56:58.831Z,1020.05
2022-10-20T01:57:59.116Z,1020.07
2022-10-20T01:58:59.422Z,1020.03
2022-10-20T01:59:59.703Z,1020.00
2022-10-20T02:00:59.998Z,1020.01
2022-10-20T02:02:00.281Z,1020.00
2022-10-20T02:03:00.574Z,1019.96
2022-10-20T02:04:00.872Z,1019.95
2022-10-20T02:05:01.153Z,1019.94
2022-10-20T02:06:01.613Z,1019.91
2022-10-20T02:07:01.790Z,1019.88
2022-10-20T02:08:02.079Z,1019.88
2022-10-20T02:09:02.417Z,1019.88
2022-10-20T02:10:02.699Z,1019.86
2022-10-20T02:11:02.987Z,1019.79
2022-10-20T02:12:03.275Z,1019.77
2022-10-20T02:13:03.568Z,1019.74
2022-10-20T02:14:03.869Z,1019.72
2022-10-20T02:15:04.165Z,1019.74
2022-10-20T02:16:04.451Z,1019.74
2022-10-20T02:17:04.738Z,1019.74
2022-10-20T02:18:05.028Z,1019.76
2022-10-20T02:19:05.341Z,1019.74
2022-10-20T02:20:05.625Z,1019.72
2022-10-20T02:21:05.918Z,1019.72
2022-10-20T02:22:06.207Z,1019.68
2022-10-20T02:23:06.494Z,1019.67
2022-10-20T02:24:06.795Z,1019.67
2022-10-20T02:25:07.086Z,1019.65
2022-10-20T02:26:07.373Z,1019.63
2022-10-20T02:27:07.658Z,1019.66
2022-10-20T02:28:07.941Z,1019.66
2022-10-20T02:29:08.243Z,1019.68
2022-10-20T02:30:08.524Z,1019.65
2022-10-20T02:31:08.806Z,1019.65
2022-10-20T02:32:09.107Z,1019.69
2022-10-20T02:33:09.397Z,1019.65
2022-10-20T02:34:09.698Z,1019.63
2022-10-20T02:35:09.983Z,1019.68
2022-10-20T02:36:10.264Z,1019.64
2022-10-20T02:37:10.613Z,1019.62
2022-10-20T02:38:10.811Z,1019.59
2022-10-20T02:39:11.118Z,1019.63
2022-10-20T02:40:11.407Z,1019.59
2022-10-20T02:41:11.700Z,1019.61
2022-10-20T02:42:11.989Z,1019.61
2022-10-20T02:43:12.283Z,1019.59
2022-10-20T02:44:12.596Z,1019.61
2022-10-20T02:45:12.891Z,1019.58
2022-10-20T02:46:13.251Z,1019.57
2022-10-20T02:47:13.438Z,1019.56
2022-10-20T02:48:13.728Z,1019.55
2022-10-20T02:49:14.051Z,1019.53
2022-10-20T02:50:14.351Z,1019.52
2022-10-20T02:51:14.638Z,1019.55
2022-10-20T02:52:14.929Z,1019.53
2022-10-20T02:53:15.224Z,1019.59
2022-10-20T02:54:15.537Z,1019.59
2022-10-20T02:55:15.899Z,1019.61
2022-10-20T02:56:16.174Z,1019.58
2022-10-20T02:57:16.452Z,1019.58
2022-10-20T02:58:16.748Z,1019.57
2022-10-20T02:59:17.056Z,1019.51
2022-10-20T03:00:17.338Z,1019.53
2022-10-20T03:01:17.650Z,1019.55
2022-10-20T03:02:17.906Z,1019.53
2022-10-20T03:03:18.207Z,1019.54
2022-10-20T03:04:18.616Z,1019.53
2022-10-20T03:05:18.776Z,1019.48
2022-10-20T03:06:19.067Z,1019.47
2022-10-20T03:07:19.355Z,1019.45
2022-10-20T03:08:19.646Z,1019.45
2022-10-20T03:09:19.945Z,1019.45
2022-10-20T03:10:20.235Z,1019.43
2022-10-20T03:11:20.522Z,1019.38
2022-10-20T03:12:20.807Z,1019.41
2022-10-20T03:13:21.129Z,1019.40
2022-10-20T03:14:21.409Z,1019.39
2022-10-20T03:15:21.699Z,1019.37
2022-10-20T03:16:21.982Z,1019.39
2022-10-20T03:17:22.272Z,1019.35
2022-10-20T03:18:22.558Z,1019.33
2022-10-20T03:19:22.866Z,1019.32
2022-10-20T03:20:23.153Z,1019.32
2022-10-20T03:21:23.441Z,1019.27
2022-10-20T03:22:23.762Z,1019.32
2022-10-20T03:23:24.048Z,1019.32
2022-10-20T03:24:24.340Z,1019.28
2022-10-20T03:25:24.633Z,1019.25
2022-10-20T03:26:24.909Z,1019.28
2022-10-20T03:27:25.218Z,1019.26
2022-10-20T03:28:25.492Z,1019.27
2022-10-20T03:29:25.805Z,1019.26
2022-10-20T03:30:26.119Z,1019.25
2022-10-20T03:31:26.407Z,1019.23
2022-10-20T03:32:26.707Z,1019.27
2022-10-20T03:33:27.006Z,1019.27
2022-10-20T03:34:27.307Z,1019.25
2022-10-20T03:35:27.588Z,1019.25
2022-10-20T03:36:27.873Z,1019.25
2022-10-20T03:37:28.166Z,1019.21
2022-10-20T03:38:28.459Z,1019.19
2022-10-20T03:39:28.766Z,1019.18
2022-10-20T03:40:29.056Z,1019.19
2022-10-20T03:41:29.356Z,1019.19
2022-10-20T03:42:29.644Z,1019.16
2022-10-20T03:43:29.933Z,1019.17
2022-10-20T03:44:30.245Z,1019.13
2022-10-20T03:45:30.540Z,1019.16
2022-10-20T03:46:30.831Z,1019.20
2022-10-20T03:47:31.121Z,1019.20
2022-10-20T03:48:31.413Z,1019.21
2022-10-20T03:49:31.734Z,1019.26
2022-10-20T03:50:32.055Z,1019.23
2022-10-20T03:51:32.349Z,1019.23
2022-10-20T03:52:32.815Z,1019.26
2022-10-20T03:53:32.948Z,1019.25
2022-10-20T03:54:33.261Z,1019.22
2022-10-20T03:55:33.552Z,1019.19
2022-10-20T03:56:33.845Z,1019.19
2022-10-20T03:57:34.578Z,1019.13
2022-10-20T03:58:34.419Z,1019.15
2022-10-20T03:59:34.741Z,1019.13
2022-10-20T04:00:35.036Z,1019.09
2022-10-20T04:01:35.451Z,1019.10
2022-10-20T04:02:35.970Z,1019.10
2022-10-20T04:03:35.980Z,1019.09
2022-10-20T04:04:36.329Z,1019.08
2022-10-20T04:05:36.560Z,1019.09
2022-10-20T04:06:36.846Z,1019.07
2022-10-20T04:07:37.979Z,1019.07
2022-10-20T04:08:37.406Z,1019.05
2022-10-20T04:09:37.737Z,1019.02
2022-10-20T04:10:38.021Z,1019.01
2022-10-20T04:11:38.315Z,1019.01
2022-10-20T04:12:39.059Z,1018.95
2022-10-20T04:13:38.875Z,1018.98
2022-10-20T04:14:39.173Z,1019.01
2022-10-20T04:15:39.463Z,1018.98
2022-10-20T04:16:39.751Z,1018.99
2022-10-20T04:18:40.391Z,1018.96
2022-10-20T04:19:40.710Z,1019.00
2022-10-20T04:20:43.649Z,1019.00
2022-10-20T04:21:41.332Z,1018.99
2022-10-20T04:22:41.623Z,1019.00
2022-10-20T04:23:41.911Z,1018.97
2022-10-20T04:24:42.212Z,1018.97
2022-10-20T04:25:42.513Z,1019.00
2022-10-20T04:26:42.820Z,1018.99
2022-10-20T04:27:43.193Z,1018.99
2022-10-20T04:28:43.389Z,1019.00
2022-10-20T04:29:43.691Z,1018.99
2022-10-20T04:30:43.982Z,1018.95
2022-10-20T04:31:46.790Z,1018.92
2022-10-20T04:32:44.539Z,1018.92
2022-10-20T04:33:44.840Z,1018.85
2022-10-20T04:34:45.142Z,1018.83
2022-10-20T04:35:45.492Z,1018.80
2022-10-20T04:36:45.789Z,1018.78
2022-10-20T04:37:46.099Z,1018.80
2022-10-20T04:38:46.402Z,1018.80
2022-10-20T04:39:46.733Z,1018.83
2022-10-20T04:40:47.030Z,1018.75
2022-10-20T04:41:47.341Z,1018.74
2022-10-20T04:42:47.639Z,1018.72
2022-10-20T04:43:47.933Z,1018.72
2022-10-20T04:44:48.296Z,1018.77
2022-10-20T04:45:48.496Z,1018.74
2022-10-20T04:46:48.810Z,1018.69
2022-10-20T04:47:49.106Z,1018.67
2022-10-20T04:48:49.411Z,1018.63
2022-10-20T04:49:49.747Z,1018.69
2022-10-20T04:50:50.046Z,1018.69
2022-10-20T04:51:50.368Z,1018.70
2022-10-20T04:52:50.664Z,1018.70
2022-10-20T04:53:50.967Z,1018.62
2022-10-20T04:54:51.279Z,1018.65
2022-10-20T04:55:51.583Z,1018.61
2022-10-20T04:56:51.871Z,1018.63
2022-10-20T04:57:52.163Z,1018.61
2022-10-20T04:58:52.454Z,1018.61
2022-10-20T04:59:52.755Z,1018.62
2022-10-20T05:00:53.053Z,1018.63
2022-10-20T05:01:53.388Z,1018.61
2022-10-20T05:02:53.689Z,1018.59
2022-10-20T05:03:53.989Z,1018.60
2022-10-20T05:04:54.282Z,1018.62
2022-10-20T05:05:54.588Z,1018.61
2022-10-20T05:06:54.865Z,1018.63
2022-10-20T05:07:55.189Z,1018.58
2022-10-20T05:08:55.480Z,1018.55
2022-10-20T05:09:55.722Z,1018.55
2022-10-20T05:10:56.005Z,1018.49
2022-10-20T05:11:56.331Z,1018.51
2022-10-20T05:12:56.650Z,1018.49
2022-10-20T05:13:56.940Z,1018.49
2022-10-20T05:14:57.345Z,1018.47
2022-10-20T05:15:57.561Z,1018.49
2022-10-20T05:16:57.896Z,1018.49
2022-10-20T05:17:58.238Z,1018.47
2022-10-20T05:18:58.569Z,1018.46
2022-10-20T05:19:58.904Z,1018.46
2022-10-20T05:21:14.521Z,1018.43
2022-10-20T05:22:00.476Z,1018.42
2022-10-20T05:22:59.806Z,1018.40
2022-10-20T05:24:00.129Z,1018.43
2022-10-20T05:25:12.790Z,1018.41
2022-10-20T05:26:01.728Z,1018.43
2022-10-20T05:27:00.975Z,1018.41
2022-10-20T05:28:01.278Z,1018.41
2022-10-20T05:29:01.584Z,1018.43
2022-10-20T05:30:01.904Z,1018.42
2022-10-20T05:31:02.202Z,1018.39
2022-10-20T05:32:02.509Z,1018.40
2022-10-20T05:33:02.805Z,1018.44
2022-10-20T05:34:03.113Z,1018.43
2022-10-20T05:35:03.443Z,1018.46
2022-10-20T05:36:03.742Z,1018.41
2022-10-20T05:37:04.041Z,1018.46
2022-10-20T05:38:04.332Z,1018.47
2022-10-20T05:39:04.641Z,1018.44
2022-10-20T05:40:04.969Z,1018.43
2022-10-20T05:41:05.275Z,1018.44
2022-10-20T05:42:05.570Z,1018.49
2022-10-20T05:43:05.886Z,1018.45
2022-10-20T05:44:06.195Z,1018.45
2022-10-20T05:45:06.509Z,1018.50
2022-10-20T05:46:06.841Z,1018.49
2022-10-20T05:47:07.140Z,1018.51
2022-10-20T05:48:07.441Z,1018.49
2022-10-20T05:49:07.739Z,1018.48
2022-10-20T05:50:08.056Z,1018.46
2022-10-20T05:51:10.678Z,1018.49
2022-10-20T05:52:09.713Z,1018.50
2022-10-20T05:53:08.992Z,1018.54
2022-10-20T05:54:09.293Z,1018.52
2022-10-20T05:55:09.609Z,1018.51
2022-10-20T05:56:09.896Z,1018.51
2022-10-20T05:57:10.187Z,1018.55
2022-10-20T05:58:10.476Z,1018.53
2022-10-20T05:59:10.773Z,1018.52
2022-10-20T06:00:11.099Z,1018.53
2022-10-20T06:01:11.393Z,1018.53
2022-10-20T06:02:11.697Z,1018.58
2022-10-20T06:03:13.955Z,1018.60
2022-10-20T06:04:13.352Z,1018.65
2022-10-20T06:05:12.656Z,1018.65
2022-10-20T06:06:12.954Z,1018.61
2022-10-20T06:07:13.256Z,1018.59
2022-10-20T06:08:13.614Z,1018.64
2022-10-20T06:09:20.988Z,1018.67
2022-10-20T06:10:14.121Z,1018.71
2022-10-20T06:11:16.451Z,1018.69
2022-10-20T06:12:14.748Z,1018.67
2022-10-20T06:13:15.040Z,1018.70
2022-10-20T06:14:15.329Z,1018.69
2022-10-20T06:15:15.648Z,1018.69
2022-10-20T06:16:15.944Z,1018.67
2022-10-20T06:17:16.229Z,1018.68
2022-10-20T06:18:16.526Z,1018.68
2022-10-20T06:19:16.899Z,1018.67
2022-10-20T06:20:19.037Z,1018.67
2022-10-20T06:21:17.318Z,1018.65
2022-10-20T06:22:17.612Z,1018.63
2022-10-20T06:23:17.924Z,1018.61
2022-10-20T06:24:18.231Z,1018.64
2022-10-20T06:25:18.543Z,1018.59
2022-10-20T06:26:18.865Z,1018.59
2022-10-20T06:27:19.152Z,1018.57
2022-10-20T06:28:19.492Z,1018.62
2022-10-20T06:29:19.781Z,1018.54
2022-10-20T06:30:20.095Z,1018.60
2022-10-20T06:31:20.435Z,1018.62
2022-10-20T06:32:20.736Z,1018.57
2022-10-20T06:33:21.044Z,1018.58
2022-10-20T06:34:21.375Z,1018.57
2022-10-20T06:35:21.649Z,1018.54
2022-10-20T06:36:21.967Z,1018.55
2022-10-20T06:37:22.598Z,1018.51
2022-10-20T06:38:22.534Z,1018.48
2022-10-20T06:39:22.852Z,1018.55
2022-10-20T06:40:23.144Z,1018.53
2022-10-20T06:41:23.447Z,1018.55
2022-10-20T06:42:23.746Z,1018.56
2022-10-20T06:43:24.021Z,1018.55
2022-10-20T06:44:24.329Z,1018.52
2022-10-20T06:45:24.622Z,1018.50
2022-10-20T06:46:24.952Z,1018.51
2022-10-20T06:47:25.238Z,1018.41
2022-10-20T06:48:25.532Z,1018.44
2022-10-20T06:49:25.809Z,1018.38
2022-10-20T06:50:26.124Z,1018.39
2022-10-20T06:51:26.406Z,1018.35
2022-10-20T06:52:26.686Z,1018.35
2022-10-20T06:53:26.958Z,1018.34
2022-10-20T06:54:27.215Z,1018.36
2022-10-20T06:55:27.478Z,1018.36
2022-10-20T06:56:27.910Z,1018.43
2022-10-20T06:57:28.047Z,1018.42
2022-10-20T06:58:28.382Z,1018.41
2022-10-20T06:59:28.618Z,1018.33
2022-10-20T07:00:28.761Z,1018.29
2022-10-20T07:01:29.113Z,1018.35
2022-10-20T07:02:29.265Z,1018.34
2022-10-20T07:03:29.523Z,1018.36
2022-10-20T07:04:29.774Z,1018.34
2022-10-20T07:05:30.052Z,1018.26
2022-10-20T07:06:30.315Z,1018.31
2022-10-20T07:07:30.603Z,1018.20
2022-10-20T07:08:30.875Z,1018.27
2022-10-20T07:09:31.115Z,1018.29
2022-10-20T07:10:31.364Z,1018.33
2022-10-20T07:11:31.622Z,1018.31
2022-10-20T07:12:31.892Z,1018.37
2022-10-20T07:13:32.121Z,1018.33
2022-10-20T07:14:32.609Z,1018.37
2022-10-20T07:15:32.681Z,1018.33
2022-10-20T07:16:32.963Z,1018.38
2022-10-20T07:17:33.199Z,1018.32
2022-10-20T07:18:33.499Z,1018.34
2022-10-20T07:19:33.722Z,1018.30
2022-10-20T07:20:33.960Z,1018.21
2022-10-20T07:21:36.451Z,1018.22
2022-10-20T07:22:34.780Z,1018.22
2022-10-20T07:23:34.619Z,1018.17
2022-10-20T07:24:34.839Z,1018.23
2022-10-20T07:25:35.121Z,1018.19
2022-10-20T07:26:35.269Z,1018.22
2022-10-20T07:27:35.533Z,1018.13
2022-10-20T07:28:35.798Z,1018.15
2022-10-20T07:29:36.086Z,1018.24
2022-10-20T07:30:36.310Z,1018.19
2022-10-20T07:31:36.561Z,1018.15
2022-10-20T07:32:37.019Z,1018.16
2022-10-20T07:33:37.017Z,1018.16
2022-10-20T07:34:37.246Z,1018.16
2022-10-20T07:35:37.468Z,1018.14
2022-10-20T07:36:37.756Z,1018.14
2022-10-20T07:37:38.340Z,1018.18
2022-10-20T07:38:38.122Z,1018.22
2022-10-20T07:39:38.234Z,1018.18
2022-10-20T07:40:38.453Z,1018.16
2022-10-20T07:41:38.680Z,1018.07
2022-10-20T07:42:39.316Z,1018.12
2022-10-20T07:43:39.093Z,1018.10
2022-10-20T07:44:39.303Z,1018.13
2022-10-20T07:45:39.530Z,1018.04
2022-10-20T07:46:39.762Z,1018.06
2022-10-20T07:47:42.157Z,1018.03
2022-10-20T07:48:40.196Z,1018.05
2022-10-20T07:49:44.691Z,1018.06
2022-10-20T07:50:40.612Z,1018.07
2022-10-20T07:51:40.812Z,1018.06
2022-10-20T07:52:40.994Z,1018.06
2022-10-20T07:53:41.217Z,1018.07
2022-10-20T07:54:41.482Z,1018.03
2022-10-20T07:55:41.596Z,1018.07
2022-10-20T07:56:41.824Z,1018.10
2022-10-20T07:57:42.028Z,1018.08
2022-10-20T07:58:42.228Z,1018.02
2022-10-20T07:59:42.418Z,1018.06
2022-10-20T08:00:42.644Z,1018.11
2022-10-20T08:01:42.907Z,1018.08
2022-10-20T08:02:43.023Z,1018.07
2022-10-20T08:03:43.276Z,1018.06
2022-10-20T08:04:43.377Z,1018.07
2022-10-20T08:05:43.561Z,1018.01
2022-10-20T08:06:43.784Z,1018.04
2022-10-20T08:07:43.979Z,1017.93
2022-10-20T08:08:44.198Z,1017.95
2022-10-20T08:10:44.597Z,1017.92
2022-10-20T08:11:44.805Z,1017.90
2022-10-20T08:12:44.995Z,1017.92
2022-10-20T08:13:45.205Z,1017.87
2022-10-20T08:14:45.425Z,1017.92
2022-10-20T08:15:47.658Z,1017.89
2022-10-20T08:16:48.374Z,1017.82
2022-10-20T08:17:45.993Z,1017.90
2022-10-20T08:18:48.096Z,1017.89
2022-10-20T08:19:53.177Z,1017.94
2022-10-20T08:20:46.565Z,1017.99
2022-10-20T08:21:46.772Z,1017.81
2022-10-20T08:22:46.962Z,1017.80
2022-10-20T08:23:47.152Z,1017.81
2022-10-20T08:24:47.341Z,1017.83
2022-10-20T08:25:47.546Z,1017.75
2022-10-20T08:26:47.765Z,1017.77
2022-10-20T08:27:47.984Z,1017.75
2022-10-20T08:28:48.151Z,1017.84
2022-10-20T08:29:55.254Z,1017.73
2022-10-20T08:30:49.532Z,1017.84
2022-10-20T08:31:48.770Z,1017.79
2022-10-20T08:32:48.833Z,1017.75
2022-10-20T08:33:52.591Z,1017.79
2022-10-20T08:34:49.205Z,1017.76
2022-10-20T08:35:49.395Z,1017.82
2022-10-20T08:36:49.583Z,1017.76
2022-10-20T08:37:49.775Z,1017.71
2022-10-20T08:38:49.956Z,1017.68
2022-10-20T08:39:50.163Z,1017.77
2022-10-20T08:40:50.338Z,1017.73
2022-10-20T08:42:51.665Z,1017.73
2022-10-20T08:43:50.859Z,1017.70
2022-10-20T08:44:51.049Z,1017.72
2022-10-20T08:45:51.235Z,1017.67
2022-10-20T08:46:51.437Z,1017.67
2022-10-20T08:47:51.607Z,1017.65
2022-10-20T08:48:51.797Z,1017.70
2022-10-20T08:49:51.985Z,1017.64
2022-10-20T08:50:52.165Z,1017.63
2022-10-20T08:51:52.359Z,1017.55
2022-10-20T08:52:52.523Z,1017.62
2022-10-20T08:53:52.697Z,1017.57
2022-10-20T08:54:52.863Z,1017.50
2022-10-20T08:55:53.044Z,1017.57
2022-10-20T08:56:53.226Z,1017.53
2022-10-20T08:57:53.403Z,1017.56
2022-10-20T08:58:53.574Z,1017.52
2022-10-20T08:59:53.746Z,1017.58
2022-10-20T09:00:53.916Z,1017.55
2022-10-20T09:01:54.286Z,1017.52
2022-10-20T09:02:54.318Z,1017.48
2022-10-20T09:03:54.498Z,1017.54
2022-10-20T09:04:54.769Z,1017.59
2022-10-20T09:05:54.818Z,1017.58
2022-10-20T09:06:55.030Z,1017.49
2022-10-20T09:07:55.205Z,1017.52
2022-10-20T09:08:55.391Z,1017.46
2022-10-20T09:09:55.557Z,1017.54
2022-10-20T09:10:55.733Z,1017.44
2022-10-20T09:11:55.995Z,1017.53
2022-10-20T09:12:56.054Z,1017.45
2022-10-20T09:13:56.234Z,1017.44
2022-10-20T09:14:56.490Z,1017.54
2022-10-20T09:15:56.537Z,1017.49
2022-10-20T09:17:00.152Z,1017.43
2022-10-20T09:17:56.914Z,1017.49
2022-10-20T09:18:57.094Z,1017.49
2022-10-20T09:19:57.272Z,1017.48
2022-10-20T09:20:57.434Z,1017.37
2022-10-20T09:21:57.615Z,1017.32
2022-10-20T09:22:58.250Z,1017.39
2022-10-20T09:23:57.943Z,1017.31
2022-10-20T09:24:58.113Z,1017.20
2022-10-20T09:25:58.334Z,1017.25
2022-10-20T09:26:59.927Z,1017.23
2022-10-20T09:27:58.649Z,1017.17
2022-10-20T09:29:12.506Z,1017.20
2022-10-20T09:29:59.955Z,1017.18
2022-10-20T09:30:59.101Z,1017.18
2022-10-20T09:32:03.770Z,1017.07
2022-10-20T09:33:00.838Z,1017.10
2022-10-20T09:33:59.611Z,1017.08
2022-10-20T09:34:59.789Z,1017.21
2022-10-20T09:35:59.975Z,1017.09
2022-10-20T09:37:00.157Z,1017.08
2022-10-20T09:38:00.448Z,1017.09
2022-10-20T09:39:00.488Z,1017.03
2022-10-20T09:40:00.670Z,1016.93
2022-10-20T09:41:00.840Z,1016.98
2022-10-20T09:43:01.119Z,1016.97
2022-10-20T09:44:01.273Z,1016.98
2022-10-20T09:45:01.449Z,1016.97
2022-10-20T09:46:01.609Z,1016.95
2022-10-20T09:47:01.783Z,1016.95
2022-10-20T09:48:01.944Z,1016.92
2022-10-20T09:49:02.141Z,1016.95
2022-10-20T09:50:02.302Z,1016.86
2022-10-20T09:51:02.499Z,1016.98
2022-10-20T09:52:02.605Z,1016.86
2022-10-20T09:53:02.748Z,1016.86
2022-10-20T09:54:02.981Z,1016.78
2022-10-20T09:55:03.016Z,1016.79
2022-10-20T09:56:03.184Z,1016.75
2022-10-20T09:57:03.390Z,1016.78
2022-10-20T09:58:03.550Z,1016.71
2022-10-20T09:59:03.692Z,1016.63
2022-10-20T10:00:18.902Z,1016.62
2022-10-20T10:01:04.979Z,1016.63
2022-10-20T10:02:04.147Z,1016.57
2022-10-20T10:03:04.298Z,1016.61
2022-10-20T10:04:09.027Z,1016.62
2022-10-20T10:05:05.566Z,1016.56
2022-10-20T10:06:04.741Z,1016.55
2022-10-20T10:07:04.911Z,1016.59
2022-10-20T10:08:05.079Z,1016.46
2022-10-20T10:09:05.359Z,1016.51
2022-10-20T10:10:08.221Z,1016.50
2022-10-20T10:11:05.489Z,1016.50
2022-10-20T10:12:05.670Z,1016.43
2022-10-20T10:14:05.933Z,1016.44
2022-10-20T10:15:06.083Z,1016.51
2022-10-20T10:16:06.267Z,1016.46
2022-10-20T10:17:06.445Z,1016.56
2022-10-20T10:18:06.594Z,1016.47
2022-10-20T10:19:06.829Z,1016.39
2022-10-20T10:20:06.912Z,1016.38
2022-10-20T10:21:07.080Z,1016.37
2022-10-20T10:22:07.251Z,1016.36
2022-10-20T10:23:07.406Z,1016.43
2022-10-20T10:24:07.595Z,1016.33
2022-10-20T10:25:07.745Z,1016.22
2022-10-20T10:26:07.902Z,1016.18
2022-10-20T10:27:08.123Z,1016.13
2022-10-20T10:28:08.159Z,1016.19
2022-10-20T10:29:08.314Z,1016.23
2022-10-20T10:30:08.483Z,1016.17
2022-10-20T10:31:08.626Z,1016.15
2022-10-20T10:32:08.955Z,1016.05
2022-10-20T10:33:08.865Z,1016.16
2022-10-20T10:34:09.028Z,1016.12
2022-10-20T10:35:09.174Z,1016.05
2022-10-20T10:36:09.326Z,1016.02
2022-10-20T10:37:09.550Z,1016.04
2022-10-20T10:38:09.591Z,1015.97
2022-10-20T10:39:09.734Z,1015.96
2022-10-20T10:40:09.877Z,1015.97
2022-10-20T10:41:10.055Z,1015.89
2022-10-20T10:42:10.237Z,1015.87
2022-10-20T10:43:10.386Z,1015.96
2022-10-20T10:44:10.540Z,1015.99
2022-10-20T10:45:10.678Z,1015.83
2022-10-20T10:46:10.824Z,1015.79
2022-10-20T10:47:10.996Z,1015.77
2022-10-20T10:48:11.160Z,1015.99
2022-10-20T10:49:11.298Z,1015.80
2022-10-20T10:50:12.342Z,1015.79
2022-10-20T10:51:11.609Z,1015.89
2022-10-20T10:52:11.786Z,1015.78
2022-10-20T10:53:11.929Z,1015.81
2022-10-20T10:54:12.259Z,1015.87
2022-10-20T10:55:21.212Z,1015.70
2022-10-20T10:56:13.318Z,1015.65
2022-10-20T10:57:12.732Z,1015.71
2022-10-20T10:59:12.822Z,1015.64
2022-10-20T11:00:13.123Z,1015.61
2022-10-20T11:01:13.280Z,1015.62
2022-10-20T11:02:13.325Z,1015.59
2022-10-20T11:03:13.486Z,1015.62
2022-10-20T11:04:13.647Z,1015.62
2022-10-20T11:05:13.801Z,1015.61
2022-10-20T11:06:13.966Z,1015.50
2022-10-20T11:07:14.160Z,1015.54
2022-10-20T11:08:14.308Z,1015.44
2022-10-20T11:09:14.472Z,1015.51
2022-10-20T11:10:14.615Z,1015.43
2022-10-20T11:11:14.770Z,1015.44
2022-10-20T11:12:14.954Z,1015.45
2022-10-20T11:13:15.085Z,1015.46
2022-10-20T11:14:15.297Z,1015.43
2022-10-20T11:15:15.348Z,1015.30
2022-10-20T11:16:15.478Z,1015.27
2022-10-20T11:17:15.642Z,1015.23
2022-10-20T11:18:15.773Z,1015.31
2022-10-20T11:19:15.907Z,1015.33
2022-10-20T11:20:16.039Z,1015.35
2022-10-20T11:21:16.173Z,1015.14
2022-10-20T11:22:16.324Z,1015.18
2022-10-20T11:23:16.455Z,1015.01
2022-10-20T11:24:16.578Z,1015.12
2022-10-20T11:25:16.719Z,1015.19
2022-10-20T11:26:16.846Z,1015.02
2022-10-20T11:27:16.992Z,1015.11
2022-10-20T11:28:17.134Z,1015.09
2022-10-20T11:29:17.258Z,1015.00
2022-10-20T11:30:17.388Z,1015.03
2022-10-20T11:31:17.532Z,1014.98
2022-10-20T11:32:17.674Z,1015.11
2022-10-20T11:33:17.803Z,1014.93
2022-10-20T11:34:17.938Z,1014.98
2022-10-20T11:35:18.073Z,1015.12
2022-10-20T11:36:18.201Z,1015.01
2022-10-20T11:37:18.333Z,1015.02
2022-10-20T11:38:18.471Z,1014.89
2022-10-20T11:39:18.627Z,1015.01
2022-10-20T11:40:18.769Z,1014.94
2022-10-20T11:41:18.891Z,1014.96
2022-10-20T11:42:19.039Z,1014.92
2022-10-20T11:43:19.168Z,1015.09
2022-10-20T11:44:19.288Z,1015.00
2022-10-20T11:45:19.419Z,1014.95
2022-10-20T11:46:19.565Z,1014.89
2022-10-20T11:47:19.706Z,1014.93
2022-10-20T11:48:19.824Z,1014.90
2022-10-20T11:49:19.963Z,1014.80
2022-10-20T11:50:20.093Z,1014.84
2022-10-20T11:51:20.221Z,1014.80
2022-10-20T11:52:20.364Z,1014.79
2022-10-20T11:53:20.495Z,1014.74
2022-10-20T11:54:20.620Z,1014.74
2022-10-20T11:55:20.743Z,1014.67
2022-10-20T11:56:20.894Z,1014.75
2022-10-20T11:57:21.052Z,1014.70
2022-10-20T11:58:21.189Z,1014.67
2022-10-20T11:59:21.314Z,1014.73
2022-10-20T12:00:21.499Z,1014.68
2022-10-20T12:01:21.521Z,1014.76
2022-10-20T12:02:21.711Z,1014.75
2022-10-20T12:03:21.905Z,1014.78
2022-10-20T12:04:21.928Z,1014.82
2022-10-20T12:05:22.068Z,1014.66
2022-10-20T12:06:22.201Z,1014.62
2022-10-20T12:07:22.371Z,1014.54
2022-10-20T12:08:29.994Z,1014.70
2022-10-20T12:10:35.717Z,1014.54
2022-10-20T12:11:35.891Z,1014.56
2022-10-20T12:12:36.339Z,1014.56
2022-10-20T12:13:36.233Z,1014.55
2022-10-20T12:14:36.436Z,1014.49
2022-10-20T12:15:36.600Z,1014.53